Seafrance Rodin — FOBQ — position and weather

sailwx.info

Track history (hours):
 
Tides and Currents Weather Stations Pressure Air Temp Water Temp Dewpoint Dewpoint Depression Visibility Wind Speed Wind Dir Waves Ship Positions

Seafrance Rodin

Operator: SeaFrance

Last reported at 2019-Nov-20 08:30 UTC. Time now 2019-Nov-20 09:17 UTC.
Position N 50°58' E 001°48'.

Length 185 m; draft 6 m.

Type: Ship (hazmat cat A). MMSI: 227022800.

Date/timePositionNaut miles runAvg speedWind from/ knotsBaromVisibWave heightAir tempDewpointWater temp
2019-Nov-20 08:30N 50°58' E 001°48'2 1.7
2019-Nov-20 07:30N 50°58' E 001°51'1110.7
2019-Nov-20 06:31N 51°00' E 001°34'8 4.2
2019-Nov-20 04:31N 51°07' E 001°26'1615.5
2019-Nov-20 03:30N 50°58' E 001°47'3 2.8
2019-Nov-20 02:30N 50°58' E 001°51'20 6.8
2019-Nov-19 23:30N 51°07' E 001°22'1818.2
2019-Nov-19 22:30N 50°58' E 001°47'1 0.8
2019-Nov-19 21:00N 50°58' E 001°45'11 4.3
2019-Nov-19 18:30N 51°04' E 001°31'917.5
2019-Nov-19 18:00N 50°59' E 001°43'2 1.6
2019-Nov-19 16:30N 50°58' E 001°46'19 9.3
2019-Nov-19 14:30N 51°07' E 001°20'1515.0
2019-Nov-19 13:30N 50°59' E 001°40'9 3.8
2019-Nov-19 11:00N 51°04' E 001°27'6 3.1
2019-Nov-19 09:00N 51°02' E 001°36'8 4.2
2019-Nov-19 07:01N 50°58' E 001°48'16 6.4
2019-Nov-19 04:31N 51°06' E 001°27'16 6.4
2019-Nov-19 02:01N 50°58' E 001°48'18 7.1
2019-Nov-18 23:31N 51°07' E 001°24'1817.7
2019-Nov-18 22:30N 50°58' E 001°48'2 3.3
2019-Nov-18 22:00N 50°58' E 001°51'0 0.1
2019-Nov-18 21:30N 50°58' E 001°51'1414.0
2019-Nov-18 20:31N 51°03' E 001°30'8 5.2
2019-Nov-18 19:02N 51°07' E 001°20'11 3.5
2019-Nov-18 16:01N 51°00' E 001°33'917.7
2019-Nov-18 15:30N 51°06' E 001°23'20 7.8
2019-Nov-18 13:01N 50°58' E 001°51'0 0.3
2019-Nov-18 12:30N 50°58' E 001°51'15 9.8
2019-Nov-18 11:01N 51°04' E 001°30'4 2.4
2019-Nov-18 09:30N 51°07' E 001°26'4 0.8
2019-Nov-18 04:52N 51°07' E 001°20'1214.0
2019-Nov-18 04:00N 51°02' E 001°37'10 9.5
2019-Nov-18 03:00N 50°58' E 001°51'1 1.3
2019-Nov-18 02:00N 50°58' E 001°49'1717.0
2019-Nov-18 01:00N 51°05' E 001°24'2 1.5
2019-Nov-17 23:30N 51°07' E 001°23'917.7
2019-Nov-17 23:01N 51°03' E 001°35'1111.2
2019-Nov-17 22:00N 50°58' E 001°51'18 9.1
2019-Nov-17 20:00N 51°05' E 001°24'18 7.3
2019-Nov-17 17:31N 50°58' E 001°51'0 0.2
2019-Nov-17 17:00N 50°58' E 001°51'0 0.0
2019-Nov-17 07:31N 50°58' E 001°51'0 0.0
2019-Nov-17 04:30N 50°58' E 001°51'0 0.0
2019-Nov-17 04:00N 50°58' E 001°51'0 0.0
2019-Nov-17 03:30N 50°58' E 001°51'10 5.0
2019-Nov-17 01:31N 51°00' E 001°36'10 2.5
2019-Nov-16 21:30N 50°58' E 001°51'1010.2
2019-Nov-16 20:30N 50°60' E 001°35'12 9.8
2019-Nov-16 19:16N 51°07' E 001°20'0 0.4
2019-Nov-16 18:56N 51°07' E 001°20'614.9
2019-Nov-16 18:30N 51°04' E 001°29'1515.2
2019-Nov-16 17:30N 50°58' E 001°51'0 0.1
2019-Nov-16 17:00N 50°58' E 001°51'1010.2
2019-Nov-16 16:00N 51°01' E 001°36'1018.5
2019-Nov-16 15:29N 51°06' E 001°23'20 2.5
2019-Nov-16 07:30N 50°58' E 001°51'1010.3
2019-Nov-16 06:31N 50°60' E 001°35'8 2.6
2019-Nov-16 03:30N 50°58' E 001°47'3 5.4
2019-Nov-16 03:01N 50°58' E 001°51'0 0.0
2019-Nov-16 02:30N 50°58' E 001°51'3 0.8
2019-Nov-15 22:30N 50°58' E 001°46'16 6.6
2019-Nov-15 20:00N 51°06' E 001°23'2 2.4
2019-Nov-15 19:00N 51°07' E 001°20'1615.6
2019-Nov-15 18:01N 50°59' E 001°42'13 5.3
2019-Nov-15 15:30N 51°06' E 001°23'12 6.2
2019-Nov-15 13:30N 51°00' E 001°41'6 4.0
2019-Nov-15 12:00N 50°58' E 001°50'18 7.3
2019-Nov-15 09:30N 51°07' E 001°24'1717.4
2019-Nov-15 08:31N 50°58' E 001°48'2 1.3
2019-Nov-15 07:00N 50°58' E 001°45'15 5.9
2019-Nov-15 04:30N 51°06' E 001°26'1514.8
2019-Nov-15 03:31N 50°58' E 001°46'18 5.0
2019-Nov-14 23:51N 51°07' E 001°20'1914.3
2019-Nov-14 22:30N 50°58' E 001°47'19 5.4
2019-Nov-14 18:56N 51°07' E 001°20'818.2
2019-Nov-14 18:30N 51°04' E 001°32'1019.2
2019-Nov-14 18:00N 50°58' E 001°44'4 8.9
2019-Nov-14 17:31N 50°58' E 001°51'22 3.0
2019-Nov-14 10:18N 51°07' E 001°20'12 3.1
2019-Nov-14 06:30N 51°01' E 001°35'3 1.1
2019-Nov-14 04:00N 51°03' E 001°38'8 3.8
2019-Nov-14 02:01N 50°58' E 001°47'17 6.7
2019-Nov-13 23:31N 51°07' E 001°25'19 9.4
2019-Nov-13 21:30N 50°58' E 001°51'1312.8
2019-Nov-13 20:31N 51°03' E 001°32'2 0.9
2019-Nov-13 18:31N 51°04' E 001°31'917.9
2019-Nov-13 18:01N 50°59' E 001°43'5 2.5
2019-Nov-13 16:01N 51°01' E 001°36'11 6.7
2019-Nov-13 14:18N 51°07' E 001°20'413.9
2019-Nov-13 14:01N 51°06' E 001°27'1711.6
2019-Nov-13 12:30N 50°58' E 001°51'8 7.6
2019-Nov-13 11:31N 50°59' E 001°39'14 7.8
2019-Nov-13 09:39N 51°07' E 001°20'213.7
2019-Nov-13 09:30N 51°07' E 001°23'1717.5
2019-Nov-13 08:30N 50°58' E 001°47'16 6.5
2019-Nov-13 06:00N 51°05' E 001°24'18 6.1
2019-Nov-13 03:01N 50°58' E 001°51'0 0.0
2019-Nov-13 02:31N 50°58' E 001°51'4 8.8
2019-Nov-13 02:00N 50°58' E 001°44'18 8.2
2019-Nov-12 23:51N 51°07' E 001°20'513.4
2019-Nov-12 23:30N 51°06' E 001°27'1711.3
2019-Nov-12 22:00N 50°58' E 001°51'7 1.7
2019-Nov-12 18:00N 50°60' E 001°40'10 4.1
2019-Nov-12 15:30N 51°05' E 001°26'5 7.0
2019-Nov-12 14:51N 51°07' E 001°20'4 5.1
2019-Nov-12 14:00N 51°06' E 001°27'918.1
2019-Nov-12 13:30N 51°01' E 001°39'815.8
2019-Nov-12 13:00N 50°58' E 001°50'0 0.4
2019-Nov-12 12:00N 50°58' E 001°51'917.4
2019-Nov-12 11:30N 50°59' E 001°37'14 8.0
2019-Nov-12 09:47N 51°07' E 001°20'1114.6
2019-Nov-12 09:01N 51°02' E 001°36'10 6.8
2019-Nov-12 07:31N 50°58' E 001°51'1912.8
2019-Nov-12 06:00N 51°06' E 001°23'17 7.0
2019-Nov-12 03:30N 50°58' E 001°48'2 1.9
2019-Nov-12 02:30N 50°58' E 001°51'9 9.4
2019-Nov-12 01:30N 50°59' E 001°36'13 7.3
2019-Nov-11 23:45N 51°07' E 001°20'21 9.5
2019-Nov-11 21:30N 50°58' E 001°51'2 4.8
2019-Nov-11 21:00N 50°58' E 001°47'13 5.4
2019-Nov-11 18:30N 51°05' E 001°29'1515.3
2019-Nov-11 17:30N 50°58' E 001°51'0 0.4
2019-Nov-11 17:00N 50°58' E 001°51'1 2.4
2019-Nov-11 16:30N 50°58' E 001°49'2012.7
2019-Nov-11 14:55N 51°07' E 001°20'2010.7
2019-Nov-11 13:01N 50°58' E 001°49'0 0.3
2019-Nov-11 12:00N 50°58' E 001°49'9 2.9
2019-Nov-11 09:01N 51°02' E 001°37'10 3.2
2019-Nov-11 06:00N 51°06' E 001°23'2 4.6
2019-Nov-11 05:30N 51°07' E 001°20'20 9.9
2019-Nov-11 03:30N 50°58' E 001°48'2 2.0
2019-Nov-11 02:30N 50°58' E 001°51'1 2.3
2019-Nov-11 02:00N 50°58' E 001°49'1514.7
2019-Nov-11 01:00N 51°04' E 001°28'3 1.9
2019-Nov-10 23:31N 51°07' E 001°27'1515.4
2019-Nov-10 22:30N 50°58' E 001°47'0 0.1
2019-Nov-10 21:00N 50°58' E 001°47'13 5.1
2019-Nov-10 18:30N 51°05' E 001°30'7 3.0
2019-Nov-10 16:01N 50°60' E 001°38'  
Track history (hours):
 
Tides and Currents Weather Stations Pressure Air Temp Water Temp Dewpoint Dewpoint Depression Visibility Wind Speed Wind Dir Waves Ship Positions

Seafrance Rodin

Operator: SeaFrance

Last reported at 2019-Nov-20 08:30 UTC. Time now 2019-Nov-20 09:17 UTC.
Position N 50°58' E 001°48'.

Length 185 m; draft 6 m.

Type: Ship (hazmat cat A). MMSI: 227022800.

Date/timePositionNaut miles runAvg speedWind from/ knotsBaromVisibWave heightAir tempDewpointWater temp
2019-Nov-20 08:30N 50°58' E 001°48'2 1.7
2019-Nov-20 07:30N 50°58' E 001°51'1110.7
2019-Nov-20 06:31N 51°00' E 001°34'8 4.2
2019-Nov-20 04:31N 51°07' E 001°26'1615.5
2019-Nov-20 03:30N 50°58' E 001°47'3 2.8
2019-Nov-20 02:30N 50°58' E 001°51'20 6.8
2019-Nov-19 23:30N 51°07' E 001°22'1818.2
2019-Nov-19 22:30N 50°58' E 001°47'1 0.8
2019-Nov-19 21:00N 50°58' E 001°45'11 4.3
2019-Nov-19 18:30N 51°04' E 001°31'917.5
2019-Nov-19 18:00N 50°59' E 001°43'2 1.6
2019-Nov-19 16:30N 50°58' E 001°46'19 9.3
2019-Nov-19 14:30N 51°07' E 001°20'1515.0
2019-Nov-19 13:30N 50°59' E 001°40'9 3.8
2019-Nov-19 11:00N 51°04' E 001°27'6 3.1
2019-Nov-19 09:00N 51°02' E 001°36'8 4.2
2019-Nov-19 07:01N 50°58' E 001°48'16 6.4
2019-Nov-19 04:31N 51°06' E 001°27'16 6.4
2019-Nov-19 02:01N 50°58' E 001°48'18 7.1
2019-Nov-18 23:31N 51°07' E 001°24'1817.7
2019-Nov-18 22:30N 50°58' E 001°48'2 3.3
2019-Nov-18 22:00N 50°58' E 001°51'0 0.1
2019-Nov-18 21:30N 50°58' E 001°51'1414.0
2019-Nov-18 20:31N 51°03' E 001°30'8 5.2
2019-Nov-18 19:02N 51°07' E 001°20'11 3.5
2019-Nov-18 16:01N 51°00' E 001°33'917.7
2019-Nov-18 15:30N 51°06' E 001°23'20 7.8
2019-Nov-18 13:01N 50°58' E 001°51'0 0.3
2019-Nov-18 12:30N 50°58' E 001°51'15 9.8
2019-Nov-18 11:01N 51°04' E 001°30'4 2.4
2019-Nov-18 09:30N 51°07' E 001°26'4 0.8
2019-Nov-18 04:52N 51°07' E 001°20'1214.0
2019-Nov-18 04:00N 51°02' E 001°37'10 9.5
2019-Nov-18 03:00N 50°58' E 001°51'1 1.3
2019-Nov-18 02:00N 50°58' E 001°49'1717.0
2019-Nov-18 01:00N 51°05' E 001°24'2 1.5
2019-Nov-17 23:30N 51°07' E 001°23'917.7
2019-Nov-17 23:01N 51°03' E 001°35'1111.2
2019-Nov-17 22:00N 50°58' E 001°51'18 9.1
2019-Nov-17 20:00N 51°05' E 001°24'18 7.3
2019-Nov-17 17:31N 50°58' E 001°51'0 0.2
2019-Nov-17 17:00N 50°58' E 001°51'0 0.0
2019-Nov-17 07:31N 50°58' E 001°51'0 0.0
2019-Nov-17 04:30N 50°58' E 001°51'0 0.0
2019-Nov-17 04:00N 50°58' E 001°51'0 0.0
2019-Nov-17 03:30N 50°58' E 001°51'10 5.0
2019-Nov-17 01:31N 51°00' E 001°36'10 2.5
2019-Nov-16 21:30N 50°58' E 001°51'1010.2
2019-Nov-16 20:30N 50°60' E 001°35'12 9.8
2019-Nov-16 19:16N 51°07' E 001°20'0 0.4
2019-Nov-16 18:56N 51°07' E 001°20'614.9
2019-Nov-16 18:30N 51°04' E 001°29'1515.2
2019-Nov-16 17:30N 50°58' E 001°51'0 0.1
2019-Nov-16 17:00N 50°58' E 001°51'1010.2
2019-Nov-16 16:00N 51°01' E 001°36'1018.5
2019-Nov-16 15:29N 51°06' E 001°23'20 2.5
2019-Nov-16 07:30N 50°58' E 001°51'1010.3
2019-Nov-16 06:31N 50°60' E 001°35'8 2.6
2019-Nov-16 03:30N 50°58' E 001°47'3 5.4
2019-Nov-16 03:01N 50°58' E 001°51'0 0.0
2019-Nov-16 02:30N 50°58' E 001°51'3 0.8
2019-Nov-15 22:30N 50°58' E 001°46'16 6.6
2019-Nov-15 20:00N 51°06' E 001°23'2 2.4
2019-Nov-15 19:00N 51°07' E 001°20'1615.6
2019-Nov-15 18:01N 50°59' E 001°42'13 5.3
2019-Nov-15 15:30N 51°06' E 001°23'12 6.2
2019-Nov-15 13:30N 51°00' E 001°41'6 4.0
2019-Nov-15 12:00N 50°58' E 001°50'18 7.3
2019-Nov-15 09:30N 51°07' E 001°24'1717.4
2019-Nov-15 08:31N 50°58' E 001°48'2 1.3
2019-Nov-15 07:00N 50°58' E 001°45'15 5.9
2019-Nov-15 04:30N 51°06' E 001°26'1514.8
2019-Nov-15 03:31N 50°58' E 001°46'18 5.0
2019-Nov-14 23:51N 51°07' E 001°20'1914.3
2019-Nov-14 22:30N 50°58' E 001°47'19 5.4
2019-Nov-14 18:56N 51°07' E 001°20'818.2
2019-Nov-14 18:30N 51°04' E 001°32'1019.2
2019-Nov-14 18:00N 50°58' E 001°44'4 8.9
2019-Nov-14 17:31N 50°58' E 001°51'22 3.0
2019-Nov-14 10:18N 51°07' E 001°20'12 3.1
2019-Nov-14 06:30N 51°01' E 001°35'3 1.1
2019-Nov-14 04:00N 51°03' E 001°38'8 3.8
2019-Nov-14 02:01N 50°58' E 001°47'17 6.7
2019-Nov-13 23:31N 51°07' E 001°25'19 9.4
2019-Nov-13 21:30N 50°58' E 001°51'1312.8
2019-Nov-13 20:31N 51°03' E 001°32'2 0.9
2019-Nov-13 18:31N 51°04' E 001°31'917.9
2019-Nov-13 18:01N 50°59' E 001°43'5 2.5
2019-Nov-13 16:01N 51°01' E 001°36'11 6.7
2019-Nov-13 14:18N 51°07' E 001°20'413.9
2019-Nov-13 14:01N 51°06' E 001°27'1711.6
2019-Nov-13 12:30N 50°58' E 001°51'8 7.6
2019-Nov-13 11:31N 50°59' E 001°39'14 7.8
2019-Nov-13 09:39N 51°07' E 001°20'213.7
2019-Nov-13 09:30N 51°07' E 001°23'1717.5
2019-Nov-13 08:30N 50°58' E 001°47'16 6.5
2019-Nov-13 06:00N 51°05' E 001°24'18 6.1
2019-Nov-13 03:01N 50°58' E 001°51'0 0.0
2019-Nov-13 02:31N 50°58' E 001°51'4 8.8
2019-Nov-13 02:00N 50°58' E 001°44'18 8.2
2019-Nov-12 23:51N 51°07' E 001°20'513.4
2019-Nov-12 23:30N 51°06' E 001°27'1711.3
2019-Nov-12 22:00N 50°58' E 001°51'7 1.7
2019-Nov-12 18:00N 50°60' E 001°40'10 4.1
2019-Nov-12 15:30N 51°05' E 001°26'5 7.0
2019-Nov-12 14:51N 51°07' E 001°20'4 5.1
2019-Nov-12 14:00N 51°06' E 001°27'918.1
2019-Nov-12 13:30N 51°01' E 001°39'815.8
2019-Nov-12 13:00N 50°58' E 001°50'0 0.4
2019-Nov-12 12:00N 50°58' E 001°51'917.4
2019-Nov-12 11:30N 50°59' E 001°37'14 8.0
2019-Nov-12 09:47N 51°07' E 001°20'1114.6
2019-Nov-12 09:01N 51°02' E 001°36'10 6.8
2019-Nov-12 07:31N 50°58' E 001°51'1912.8
2019-Nov-12 06:00N 51°06' E 001°23'17 7.0
2019-Nov-12 03:30N 50°58' E 001°48'2 1.9
2019-Nov-12 02:30N 50°58' E 001°51'9 9.4
2019-Nov-12 01:30N 50°59' E 001°36'13 7.3
2019-Nov-11 23:45N 51°07' E 001°20'21 9.5
2019-Nov-11 21:30N 50°58' E 001°51'2 4.8
2019-Nov-11 21:00N 50°58' E 001°47'13 5.4
2019-Nov-11 18:30N 51°05' E 001°29'1515.3
2019-Nov-11 17:30N 50°58' E 001°51'0 0.4
2019-Nov-11 17:00N 50°58' E 001°51'1 2.4
2019-Nov-11 16:30N 50°58' E 001°49'2012.7
2019-Nov-11 14:55N 51°07' E 001°20'2010.7
2019-Nov-11 13:01N 50°58' E 001°49'0 0.3
2019-Nov-11 12:00N 50°58' E 001°49'9 2.9
2019-Nov-11 09:01N 51°02' E 001°37'10 3.2
2019-Nov-11 06:00N 51°06' E 001°23'2 4.6
2019-Nov-11 05:30N 51°07' E 001°20'20 9.9
2019-Nov-11 03:30N 50°58' E 001°48'2 2.0
2019-Nov-11 02:30N 50°58' E 001°51'1 2.3
2019-Nov-11 02:00N 50°58' E 001°49'1514.7
2019-Nov-11 01:00N 51°04' E 001°28'3 1.9
2019-Nov-10 23:31N 51°07' E 001°27'1515.4
2019-Nov-10 22:30N 50°58' E 001°47'0 0.1
2019-Nov-10 21:00N 50°58' E 001°47'13 5.1
2019-Nov-10 18:30N 51°05' E 001°30'7 3.0
2019-Nov-10 16:01N 50°60' E 001°38'  

Dump ship's entire track history